createdAt,value
2022-08-08T00:02:03.508Z,52.36
2022-08-08T00:04:56.061Z,52.34
2022-08-08T00:07:53.432Z,52.84
2022-08-08T00:10:33.369Z,52.88
2022-08-08T00:14:15.000Z,53.04
2022-08-08T00:16:21.806Z,53.33
2022-08-08T00:19:20.137Z,53.61
2022-08-08T00:21:52.568Z,53.80
2022-08-08T00:24:30.070Z,53.82
2022-08-08T00:27:01.128Z,53.91
2022-08-08T00:29:44.905Z,53.99
2022-08-08T00:32:38.430Z,54.58
2022-08-08T00:35:37.549Z,54.10
2022-08-08T00:38:16.739Z,54.30
2022-08-08T00:41:12.079Z,54.63
2022-08-08T00:43:59.379Z,54.92
2022-08-08T00:46:57.369Z,55.15
2022-08-08T00:49:35.484Z,55.19
2022-08-08T00:52:05.600Z,55.20
2022-08-08T00:54:52.873Z,55.55
2022-08-08T00:57:45.205Z,55.37
2022-08-08T01:00:33.390Z,55.61
2022-08-08T01:04:01.353Z,55.92
2022-08-08T01:06:35.591Z,55.64
2022-08-08T01:09:35.710Z,56.34
2022-08-08T01:12:31.205Z,56.68
2022-08-08T01:15:37.240Z,56.73
2022-08-08T01:18:59.140Z,57.39
2022-08-08T01:22:09.949Z,57.53
2022-08-08T01:25:26.468Z,57.82
2022-08-08T01:28:28.169Z,58.03
2022-08-08T01:32:12.751Z,58.31
2022-08-08T01:34:21.337Z,58.35
2022-08-08T01:37:56.683Z,58.52
2022-08-08T01:40:32.960Z,58.61
2022-08-08T01:43:21.910Z,58.51
2022-08-08T01:46:27.950Z,58.85
2022-08-08T01:49:00.530Z,58.87
2022-08-08T01:52:41.311Z,59.05
2022-08-08T01:55:27.111Z,59.17
2022-08-08T01:58:13.825Z,59.65
2022-08-08T02:01:02.736Z,60.02
2022-08-08T02:04:01.918Z,59.95
2022-08-08T02:06:44.064Z,60.21
2022-08-08T02:10:03.388Z,60.45
2022-08-08T02:12:53.945Z,60.20
2022-08-08T02:15:34.590Z,61.05
2022-08-08T02:18:17.068Z,61.35
2022-08-08T02:21:28.567Z,61.58
2022-08-08T02:24:03.099Z,61.41
2022-08-08T02:26:34.945Z,61.47
2022-08-08T02:29:22.064Z,61.55
2022-08-08T02:32:22.350Z,61.48
2022-08-08T02:35:18.292Z,61.62
2022-08-08T02:38:14.742Z,61.70
2022-08-08T02:40:55.647Z,61.88
2022-08-08T02:44:39.076Z,61.93
2022-08-08T02:46:59.035Z,62.54
2022-08-08T02:49:48.175Z,62.65
2022-08-08T02:52:41.068Z,62.74
2022-08-08T02:55:47.282Z,62.82
2022-08-08T02:58:37.094Z,63.18
2022-08-08T03:01:27.530Z,63.25
2022-08-08T03:05:07.911Z,63.31
2022-08-08T03:07:41.206Z,63.69
2022-08-08T03:10:44.739Z,63.73
2022-08-08T03:15:59.847Z,64.11
2022-08-08T03:17:10.249Z,63.96
2022-08-08T03:20:08.055Z,64.24
2022-08-08T03:22:56.000Z,64.49
2022-08-08T03:25:36.163Z,64.58
2022-08-08T03:28:29.964Z,64.82
2022-08-08T03:31:22.187Z,64.88
2022-08-08T03:33:55.837Z,64.88
2022-08-08T03:36:30.329Z,64.95
2022-08-08T03:39:14.191Z,65.70
2022-08-08T03:42:27.761Z,65.83
2022-08-08T03:44:35.242Z,66.06
2022-08-08T03:47:17.614Z,66.38
2022-08-08T03:50:00.769Z,66.17
2022-08-08T03:52:36.349Z,66.73
2022-08-08T03:55:19.979Z,66.08
2022-08-08T03:58:36.269Z,66.69
2022-08-08T04:01:23.527Z,66.95
2022-08-08T04:04:01.994Z,67.33
2022-08-08T04:06:39.172Z,67.30
2022-08-08T04:09:11.473Z,67.58
2022-08-08T04:11:58.109Z,67.23
2022-08-08T04:14:36.344Z,67.27
2022-08-08T04:17:07.126Z,67.01
2022-08-08T04:19:51.888Z,66.81
2022-08-08T04:22:24.090Z,66.97
2022-08-08T04:24:56.351Z,67.27
2022-08-08T04:28:01.770Z,66.82
2022-08-08T04:30:17.162Z,66.30
2022-08-08T04:32:50.312Z,66.09
2022-08-08T04:35:22.889Z,66.04
2022-08-08T04:37:55.047Z,65.94
2022-08-08T04:40:32.975Z,65.89
2022-08-08T04:43:01.875Z,65.54
2022-08-08T04:45:37.181Z,65.36
2022-08-08T04:48:05.583Z,65.32
2022-08-08T04:50:38.932Z,64.69
2022-08-08T04:54:26.862Z,64.67
2022-08-08T04:56:04.958Z,64.28
2022-08-08T04:58:34.767Z,64.40
2022-08-08T05:01:09.151Z,64.06
2022-08-08T05:04:09.364Z,63.33
2022-08-08T05:06:39.074Z,63.12
2022-08-08T05:09:10.189Z,63.00
2022-08-08T05:11:41.531Z,62.63
2022-08-08T05:14:12.719Z,62.17
2022-08-08T05:16:53.749Z,61.63
2022-08-08T05:20:11.851Z,61.62
2022-08-08T05:22:19.058Z,60.52
2022-08-08T05:24:49.619Z,59.31
2022-08-08T05:27:20.333Z,57.80
2022-08-08T05:29:52.201Z,56.89
2022-08-08T05:32:28.058Z,52.76
2022-08-08T05:35:04.781Z,47.14
2022-08-08T05:37:52.821Z,42.80
2022-08-08T05:40:30.398Z,39.30
2022-08-08T05:43:38.193Z,37.02
2022-08-08T05:46:02.993Z,34.56
2022-08-08T05:48:34.711Z,33.76
2022-08-08T05:51:14.445Z,32.23
2022-08-08T05:54:25.706Z,30.99
2022-08-08T05:56:42.227Z,29.77
2022-08-08T06:00:00.313Z,29.65
2022-08-08T06:02:40.979Z,29.35
2022-08-08T06:05:33.687Z,30.60
2022-08-08T06:08:09.978Z,31.06
2022-08-08T06:10:56.146Z,30.68
2022-08-08T06:13:25.322Z,30.01
2022-08-08T06:15:56.633Z,30.17
2022-08-08T06:18:36.390Z,29.79
2022-08-08T06:21:27.871Z,28.90
2022-08-08T06:24:02.428Z,27.41
2022-08-08T06:26:45.501Z,25.96
2022-08-08T06:29:56.675Z,24.77
2022-08-08T06:32:17.183Z,24.80
2022-08-08T06:35:12.212Z,24.37
2022-08-08T06:37:51.014Z,24.28
2022-08-08T06:40:32.308Z,23.96
2022-08-08T06:43:09.964Z,23.55
2022-08-08T06:45:48.185Z,23.43
2022-08-08T06:48:18.781Z,23.03
2022-08-08T06:50:49.732Z,22.26
2022-08-08T06:53:20.951Z,22.79
2022-08-08T06:56:02.534Z,23.04
2022-08-08T06:58:34.149Z,22.78
2022-08-08T07:01:52.368Z,22.18
2022-08-08T07:04:39.585Z,21.66
2022-08-08T07:06:55.263Z,21.22
2022-08-08T07:09:45.564Z,20.75
2022-08-08T07:12:30.525Z,21.24
2022-08-08T07:15:23.162Z,21.53
2022-08-08T07:18:35.113Z,19.97
2022-08-08T07:21:05.186Z,19.19
2022-08-08T07:24:03.853Z,18.46
2022-08-08T07:26:53.243Z,17.96
2022-08-08T07:29:59.845Z,18.74
2022-08-08T07:32:11.057Z,18.70
2022-08-08T07:35:00.395Z,19.39
2022-08-08T07:37:55.946Z,18.75
2022-08-08T07:40:30.019Z,17.67
2022-08-08T07:43:09.076Z,17.92
2022-08-08T07:46:05.188Z,17.55
2022-08-08T07:48:32.229Z,17.02
2022-08-08T07:51:04.222Z,17.26
2022-08-08T07:54:26.592Z,17.67
2022-08-08T07:57:10.386Z,17.17
2022-08-08T07:59:53.711Z,16.35
2022-08-08T08:02:33.084Z,15.23
2022-08-08T08:05:15.510Z,16.29
2022-08-08T08:07:54.583Z,15.89
2022-08-08T08:10:33.156Z,16.16
2022-08-08T08:13:25.474Z,17.00
2022-08-08T08:16:19.490Z,15.65
2022-08-08T08:18:59.142Z,15.24
2022-08-08T08:21:52.326Z,15.01
2022-08-08T08:24:36.020Z,15.73
2022-08-08T08:27:08.390Z,16.46
2022-08-08T08:29:39.685Z,16.43
2022-08-08T08:32:11.069Z,16.04
2022-08-08T08:34:43.084Z,16.72
2022-08-08T08:37:20.260Z,16.90
2022-08-08T08:40:01.258Z,16.34
2022-08-08T08:42:36.275Z,16.53
2022-08-08T08:45:20.692Z,16.52
2022-08-08T08:47:54.003Z,16.60
2022-08-08T08:50:33.879Z,16.80
2022-08-08T08:53:55.304Z,16.21
2022-08-08T08:56:02.761Z,15.80
2022-08-08T08:58:46.839Z,16.58
2022-08-08T09:01:24.851Z,16.19
2022-08-08T09:04:00.209Z,16.55
2022-08-08T09:06:50.200Z,16.50
2022-08-08T09:09:39.973Z,16.85
2022-08-08T09:12:20.062Z,16.99
2022-08-08T09:14:50.160Z,17.17
2022-08-08T09:17:31.680Z,17.30
2022-08-08T09:22:01.639Z,16.83
2022-08-08T09:23:00.238Z,16.70
2022-08-08T09:25:36.243Z,16.40
2022-08-08T09:28:35.208Z,16.51
2022-08-08T09:31:12.648Z,16.59
2022-08-08T09:34:05.996Z,17.23
2022-08-08T09:36:36.114Z,18.17
2022-08-08T09:39:10.306Z,17.53
2022-08-08T09:42:14.077Z,17.85
2022-08-08T09:44:46.291Z,18.15
2022-08-08T09:48:05.066Z,17.35
2022-08-08T09:50:13.595Z,17.93
2022-08-08T09:53:05.634Z,18.51
2022-08-08T09:56:03.424Z,18.25
2022-08-08T09:58:33.206Z,18.77
2022-08-08T10:01:14.281Z,19.10
2022-08-08T10:03:46.981Z,19.75
2022-08-08T10:06:29.523Z,19.46
2022-08-08T10:08:57.400Z,20.14
2022-08-08T10:12:27.250Z,20.10
2022-08-08T10:14:28.606Z,20.39
2022-08-08T10:17:56.558Z,21.36
2022-08-08T10:20:00.717Z,22.09
2022-08-08T10:22:32.284Z,22.64
2022-08-08T10:25:04.741Z,23.99
2022-08-08T10:27:42.596Z,23.88
2022-08-08T10:30:16.679Z,23.82
2022-08-08T10:33:12.497Z,23.95
2022-08-08T10:36:19.735Z,24.42
2022-08-08T10:38:35.559Z,24.64
2022-08-08T10:41:16.929Z,25.64
2022-08-08T10:43:50.826Z,25.10
2022-08-08T10:46:30.091Z,25.30
2022-08-08T10:48:59.555Z,25.49
2022-08-08T10:51:31.049Z,26.13
2022-08-08T10:54:02.310Z,26.35
2022-08-08T10:56:35.460Z,26.85
2022-08-08T10:59:14.098Z,26.12
2022-08-08T11:01:49.634Z,26.60
2022-08-08T11:04:38.402Z,26.75
2022-08-08T11:07:07.487Z,26.73
2022-08-08T11:09:50.324Z,26.46
2022-08-08T11:12:18.253Z,26.87
2022-08-08T11:14:54.250Z,26.68
2022-08-08T11:18:01.000Z,26.84
2022-08-08T11:20:14.615Z,26.92
2022-08-08T11:22:51.725Z,26.91
2022-08-08T11:25:52.896Z,27.33
2022-08-08T11:28:13.082Z,26.46
2022-08-08T11:30:50.076Z,26.82
2022-08-08T11:34:01.736Z,27.17
2022-08-08T11:36:13.376Z,27.01
2022-08-08T11:38:53.798Z,26.63
2022-08-08T11:41:24.555Z,27.48
2022-08-08T11:43:54.279Z,27.79
2022-08-08T11:46:28.148Z,27.74
2022-08-08T11:48:58.326Z,27.28
2022-08-08T11:51:38.185Z,27.68
2022-08-08T11:54:26.850Z,27.55
2022-08-08T11:56:57.667Z,27.49
2022-08-08T11:59:57.858Z,27.58
2022-08-08T12:02:40.132Z,27.35
2022-08-08T12:05:13.806Z,27.78
2022-08-08T12:07:51.431Z,28.18
2022-08-08T12:10:28.769Z,28.00
2022-08-08T12:13:09.638Z,27.65
2022-08-08T12:15:40.126Z,27.48
2022-08-08T12:18:20.927Z,27.62
2022-08-08T12:20:50.337Z,28.04
2022-08-08T12:23:43.588Z,28.29
2022-08-08T12:26:36.426Z,28.32
2022-08-08T12:29:40.141Z,27.78
2022-08-08T12:32:19.558Z,28.13
2022-08-08T12:35:01.239Z,27.91
2022-08-08T12:37:41.130Z,27.46
2022-08-08T12:40:22.991Z,27.20
2022-08-08T12:42:53.239Z,28.02
2022-08-08T12:45:58.246Z,27.43
2022-08-08T12:48:37.967Z,26.93
2022-08-08T12:51:11.003Z,26.65
2022-08-08T12:53:58.968Z,27.29
2022-08-08T12:56:37.588Z,27.10
2022-08-08T12:59:17.730Z,27.13
2022-08-08T13:01:56.503Z,27.16
2022-08-08T13:04:25.832Z,27.25
2022-08-08T13:06:54.262Z,27.27
2022-08-08T13:09:43.165Z,27.02
2022-08-08T13:12:29.164Z,26.90
2022-08-08T13:15:11.235Z,26.73
2022-08-08T13:18:09.012Z,27.17
2022-08-08T13:20:27.592Z,27.10
2022-08-08T13:23:30.229Z,27.23
2022-08-08T13:25:44.083Z,27.41
2022-08-08T13:28:28.905Z,27.11
2022-08-08T13:31:04.739Z,27.49
2022-08-08T13:33:42.415Z,27.47
2022-08-08T13:36:11.200Z,27.26
2022-08-08T13:38:39.881Z,26.62
2022-08-08T13:41:16.923Z,26.95
2022-08-08T13:43:51.157Z,26.95
2022-08-08T13:46:26.686Z,27.54
2022-08-08T13:49:12.198Z,27.17
2022-08-08T13:51:57.231Z,27.13
2022-08-08T13:54:29.262Z,26.84
2022-08-08T13:57:08.846Z,26.25
2022-08-08T13:59:48.518Z,26.53
2022-08-08T14:02:20.625Z,26.32
2022-08-08T14:04:55.658Z,26.05
2022-08-08T14:07:31.451Z,26.51
2022-08-08T14:10:11.633Z,26.46
2022-08-08T14:12:43.706Z,26.90
2022-08-08T14:15:31.445Z,27.01
2022-08-08T14:18:36.067Z,27.00
2022-08-08T14:21:03.023Z,27.00
2022-08-08T14:24:04.532Z,27.07
2022-08-08T14:26:33.418Z,26.82
2022-08-08T14:29:06.166Z,26.47
2022-08-08T14:32:11.039Z,26.66
2022-08-08T14:34:37.151Z,26.34
2022-08-08T14:37:08.124Z,27.11
2022-08-08T14:40:05.428Z,26.74
2022-08-08T14:42:55.359Z,26.69
2022-08-08T14:45:33.488Z,27.10
2022-08-08T14:48:16.561Z,27.55
2022-08-08T14:51:04.575Z,26.96
2022-08-08T14:53:55.073Z,26.90
2022-08-08T14:56:25.579Z,27.31
2022-08-08T14:58:54.959Z,26.60
2022-08-08T15:01:40.697Z,27.08
2022-08-08T15:04:11.521Z,26.49
2022-08-08T15:06:42.646Z,26.98
2022-08-08T15:09:11.915Z,27.25
2022-08-08T15:11:46.608Z,27.22
2022-08-08T15:14:24.952Z,27.13
2022-08-08T15:16:53.322Z,27.10
2022-08-08T15:19:23.773Z,27.26
2022-08-08T15:21:55.580Z,27.81
2022-08-08T15:24:25.418Z,27.89
2022-08-08T15:27:11.919Z,28.36
2022-08-08T15:29:47.454Z,28.43
2022-08-08T15:32:20.474Z,27.00
2022-08-08T15:34:49.835Z,26.80
2022-08-08T15:37:17.440Z,26.93
2022-08-08T15:39:46.378Z,27.77
2022-08-08T15:42:31.485Z,28.54
2022-08-08T15:45:01.468Z,28.80
2022-08-08T15:47:31.938Z,29.03
2022-08-08T15:50:03.020Z,28.44
2022-08-08T15:52:39.324Z,28.75
2022-08-08T15:55:19.040Z,28.58
2022-08-08T15:57:48.588Z,28.55
2022-08-08T16:00:27.520Z,28.17
2022-08-08T16:02:59.639Z,29.71
2022-08-08T16:05:35.538Z,29.64
2022-08-08T16:08:06.715Z,29.86
2022-08-08T16:13:10.359Z,29.69
2022-08-08T16:13:44.942Z,29.19
2022-08-08T16:16:17.355Z,29.62
2022-08-08T16:18:56.478Z,30.28
2022-08-08T16:21:27.819Z,30.38
2022-08-08T16:23:58.468Z,30.62
2022-08-08T16:26:34.633Z,30.27
2022-08-08T16:29:15.421Z,30.49
2022-08-08T16:31:48.487Z,30.53
2022-08-08T16:34:21.078Z,30.62
2022-08-08T16:36:52.648Z,30.61
2022-08-08T16:39:54.960Z,31.37
2022-08-08T16:42:28.163Z,31.47
2022-08-08T16:44:58.892Z,31.23
2022-08-08T16:47:40.189Z,31.19
2022-08-08T16:50:16.378Z,31.51
2022-08-08T16:55:03.840Z,31.47
2022-08-08T16:55:53.284Z,31.79
2022-08-08T16:58:25.701Z,31.58
2022-08-08T17:00:58.020Z,32.00
2022-08-08T17:03:57.957Z,31.94
2022-08-08T17:06:37.411Z,32.00
2022-08-08T17:09:02.525Z,32.33
2022-08-08T17:11:39.440Z,32.49
2022-08-08T17:14:19.068Z,32.64
2022-08-08T17:16:57.348Z,33.03
2022-08-08T17:19:29.087Z,33.27
2022-08-08T17:22:01.264Z,33.01
2022-08-08T17:24:32.667Z,33.17
2022-08-08T17:27:02.269Z,33.60
2022-08-08T17:29:34.114Z,33.49
2022-08-08T17:32:05.921Z,33.74
2022-08-08T17:35:00.168Z,33.79
2022-08-08T17:37:24.943Z,33.86
2022-08-08T17:40:06.054Z,34.36
2022-08-08T17:42:41.489Z,34.43
2022-08-08T17:45:23.486Z,34.48
2022-08-08T17:47:52.216Z,34.36
2022-08-08T17:50:21.899Z,34.35
2022-08-08T17:52:49.956Z,34.25
2022-08-08T17:56:06.192Z,34.21
2022-08-08T17:58:06.026Z,34.66
2022-08-08T18:00:33.227Z,34.56
2022-08-08T18:03:13.409Z,34.88
2022-08-08T18:05:49.119Z,35.03
2022-08-08T18:08:25.049Z,34.79
2022-08-08T18:11:16.895Z,34.81
2022-08-08T18:13:46.409Z,35.12
2022-08-08T18:16:16.670Z,35.15
2022-08-08T18:18:53.666Z,35.02
2022-08-08T18:21:34.635Z,35.53
2022-08-08T18:24:18.913Z,35.64
2022-08-08T18:26:53.824Z,35.53
2022-08-08T18:29:27.381Z,35.64
2022-08-08T18:32:07.534Z,35.65
2022-08-08T18:34:38.740Z,35.95
2022-08-08T18:37:08.401Z,36.32
2022-08-08T18:39:38.614Z,36.07
2022-08-08T18:42:14.295Z,36.58
2022-08-08T18:44:55.066Z,36.73
2022-08-08T18:47:25.298Z,37.38
2022-08-08T18:49:58.292Z,37.45
2022-08-08T18:52:27.843Z,37.49
2022-08-08T18:55:00.732Z,37.61
2022-08-08T18:57:44.810Z,38.13
2022-08-08T19:00:20.484Z,37.74
2022-08-08T19:02:57.098Z,38.14
2022-08-08T19:05:30.167Z,38.26
2022-08-08T19:07:59.544Z,38.13
2022-08-08T19:10:27.717Z,38.67
2022-08-08T19:12:56.526Z,38.47
2022-08-08T19:15:26.132Z,39.59
2022-08-08T19:18:33.471Z,38.67
2022-08-08T19:20:49.808Z,38.93
2022-08-08T19:23:18.194Z,39.18
2022-08-08T19:26:19.875Z,39.00
2022-08-08T19:28:38.276Z,39.05
2022-08-08T19:31:10.013Z,39.21
2022-08-08T19:34:05.040Z,39.21
2022-08-08T19:36:28.440Z,39.76
2022-08-08T19:38:57.075Z,39.74
2022-08-08T19:41:35.125Z,39.47
2022-08-08T19:44:13.262Z,39.65
2022-08-08T19:46:52.070Z,39.56
2022-08-08T19:49:19.270Z,39.97
2022-08-08T19:51:46.388Z,40.50
2022-08-08T19:54:16.240Z,40.24
2022-08-08T19:56:49.018Z,40.42
2022-08-08T19:59:22.140Z,40.75
2022-08-08T20:02:03.317Z,40.69
2022-08-08T20:04:34.569Z,40.99
2022-08-08T20:08:27.183Z,41.17
2022-08-08T20:09:56.372Z,41.66
2022-08-08T20:12:31.657Z,41.64
2022-08-08T20:15:14.986Z,41.97
2022-08-08T20:17:47.585Z,42.33
2022-08-08T20:20:19.045Z,42.41
2022-08-08T20:22:48.760Z,42.35
2022-08-08T20:25:20.395Z,42.37
2022-08-08T20:27:50.428Z,42.61
2022-08-08T20:30:35.580Z,43.03
2022-08-08T20:33:20.055Z,43.34
2022-08-08T20:35:57.280Z,43.21
2022-08-08T20:38:33.021Z,43.35
2022-08-08T20:41:05.793Z,43.44
2022-08-08T20:43:49.341Z,43.65
2022-08-08T20:46:25.324Z,43.99
2022-08-08T20:49:21.876Z,43.99
2022-08-08T20:51:49.030Z,44.06
2022-08-08T20:54:26.340Z,44.39
2022-08-08T20:57:16.303Z,44.49
2022-08-08T20:59:46.740Z,44.33
2022-08-08T21:02:19.658Z,44.90
2022-08-08T21:05:01.083Z,45.23
2022-08-08T21:08:07.774Z,45.26
2022-08-08T21:10:21.060Z,45.20
2022-08-08T21:12:52.997Z,45.84
2022-08-08T21:16:04.971Z,45.59
2022-08-08T21:18:11.609Z,45.53
2022-08-08T21:20:39.903Z,45.98
2022-08-08T21:23:09.955Z,46.17
2022-08-08T21:25:40.409Z,46.55
2022-08-08T21:28:15.757Z,45.97
2022-08-08T21:30:45.279Z,46.66
2022-08-08T21:33:19.338Z,46.25
2022-08-08T21:36:19.231Z,46.64
2022-08-08T21:38:34.557Z,46.46
2022-08-08T21:41:01.434Z,46.85
2022-08-08T21:43:33.299Z,46.62
2022-08-08T21:48:04.712Z,46.67
2022-08-08T21:48:57.963Z,47.17
2022-08-08T21:54:17.327Z,47.46
2022-08-08T21:54:52.481Z,47.54
2022-08-08T21:57:05.027Z,47.94
2022-08-08T22:00:02.813Z,47.86
2022-08-08T22:02:23.425Z,48.06
2022-08-08T22:04:55.973Z,47.98
2022-08-08T22:07:40.107Z,47.33
2022-08-08T22:10:18.334Z,47.84
2022-08-08T22:13:17.319Z,48.36
2022-08-08T22:15:59.213Z,48.66
2022-08-08T22:18:29.648Z,48.75
2022-08-08T22:21:01.434Z,48.10
2022-08-08T22:23:43.416Z,49.11
2022-08-08T22:26:29.444Z,49.24
2022-08-08T22:29:15.002Z,49.34
2022-08-08T22:31:58.701Z,49.46
2022-08-08T22:34:39.141Z,49.27
2022-08-08T22:37:28.208Z,50.00
2022-08-08T22:40:00.391Z,50.07
2022-08-08T22:42:32.034Z,50.62
2022-08-08T22:45:09.309Z,50.43
2022-08-08T22:47:49.147Z,50.57
2022-08-08T22:50:27.306Z,50.77
2022-08-08T22:54:15.686Z,51.12
2022-08-08T22:55:57.791Z,51.35
2022-08-08T22:58:34.062Z,51.48
2022-08-08T23:02:00.789Z,51.82
2022-08-08T23:03:56.293Z,51.75
2022-08-08T23:06:25.635Z,52.32
2022-08-08T23:08:56.088Z,52.58
2022-08-08T23:11:58.046Z,52.36
2022-08-08T23:14:20.859Z,52.54
2022-08-08T23:16:57.627Z,52.77
2022-08-08T23:19:32.337Z,52.79
2022-08-08T23:22:06.333Z,52.88
2022-08-08T23:24:41.380Z,53.06
2022-08-08T23:27:17.281Z,53.13
2022-08-08T23:30:00.547Z,53.77
2022-08-08T23:32:27.643Z,53.59
2022-08-08T23:34:58.889Z,54.00
2022-08-08T23:37:54.044Z,54.24
2022-08-08T23:40:22.154Z,54.34
2022-08-08T23:42:51.336Z,54.71
2022-08-08T23:45:18.532Z,54.69
2022-08-08T23:49:03.342Z,55.16
2022-08-08T23:50:57.298Z,54.80
2022-08-08T23:54:06.348Z,55.10
2022-08-08T23:56:12.053Z,55.28
2022-08-08T23:58:39.360Z,55.26
